TimeCST,TemperatureF,Dew PointF,Humidity,Sea Level PressureIn,VisibilityMPH,Wind Direction,Wind SpeedMPH,Gust SpeedMPH,PrecipitationIn,Events,Conditions,WindDirDegrees,DateUTC
12:53 AM,18.0,10.9,74,30.52,10.0,Calm,Calm,-,N/A,,Clear,0,2012-11-16 06:53:00
1:53 AM,14.0,9.0,80,30.52,10.0,Calm,Calm,-,N/A,,Clear,0,2012-11-16 07:53:00
2:53 AM,16.0,10.9,81,30.51,10.0,Calm,Calm,-,N/A,,Clear,0,2012-11-16 08:53:00
3:53 AM,16.0,10.9,81,30.49,10.0,Calm,Calm,-,N/A,,Clear,0,2012-11-16 09:53:00
4:53 AM,16.0,10.9,81,30.49,10.0,SE,3.5,-,N/A,,Clear,140,2012-11-16 10:53:00
5:53 AM,17.1,10.0,74,30.48,10.0,SE,4.6,-,N/A,,Clear,140,2012-11-16 11:53:00
6:53 AM,17.1,10.0,74,30.48,10.0,SE,6.9,-,N/A,,Clear,140,2012-11-16 12:53:00
7:53 AM,17.1,9.0,71,30.48,10.0,SE,6.9,-,N/A,,Clear,140,2012-11-16 13:53:00
8:53 AM,21.9,12.9,68,30.49,10.0,South,10.4,-,N/A,,Clear,170,2012-11-16 14:53:00
9:53 AM,25.0,12.0,58,30.50,10.0,South,5.8,-,N/A,,Clear,190,2012-11-16 15:53:00
10:53 AM,30.0,12.0,47,30.48,10.0,SSE,11.5,-,N/A,,Clear,160,2012-11-16 16:53:00
11:53 AM,33.1,12.0,42,30.43,10.0,SSE,12.7,-,N/A,,Clear,160,2012-11-16 17:53:00
12:53 PM,35.1,10.9,37,30.41,10.0,SSE,9.2,-,N/A,,Clear,160,2012-11-16 18:53:00
1:53 PM,37.9,9.0,30,30.37,10.0,SSE,15.0,-,N/A,,Clear,150,2012-11-16 19:53:00
2:53 PM,37.9,6.1,27,30.33,10.0,SE,16.1,-,N/A,,Clear,140,2012-11-16 20:53:00
3:53 PM,37.9,8.1,29,30.33,10.0,SSE,9.2,-,N/A,,Clear,150,2012-11-16 21:53:00
4:53 PM,34.0,8.1,34,30.32,10.0,SE,11.5,-,N/A,,Clear,140,2012-11-16 22:53:00
5:53 PM,32.0,10.0,40,30.30,10.0,SE,11.5,-,N/A,,Clear,140,2012-11-16 23:53:00
6:53 PM,30.9,12.0,46,30.28,10.0,SE,15.0,-,N/A,,Clear,140,2012-11-17 00:53:00
7:53 PM,30.9,14.0,50,30.28,10.0,SSE,10.4,-,N/A,,Clear,150,2012-11-17 01:53:00
8:53 PM,30.9,14.0,50,30.27,10.0,SSE,12.7,-,N/A,,Clear,150,2012-11-17 02:53:00
9:53 PM,28.9,15.1,56,30.26,10.0,SE,9.2,-,N/A,,Clear,140,2012-11-17 03:53:00
10:53 PM,32.0,18.0,56,30.24,10.0,SSE,11.5,-,N/A,,Clear,160,2012-11-17 04:53:00
11:53 PM,32.0,19.0,59,30.21,10.0,SSE,15.0,-,N/A,,Clear,160,2012-11-17 05:53:00